sensor_id;sensor_type;location;lat;lon;timestamp;P1;durP1;ratioP1;P2;durP2;ratioP2
53718;SDS011;39616;48.872;9.390;2023-07-16T00:01:27;6.60;;;3.50;;
53718;SDS011;39616;48.872;9.390;2023-07-16T00:03:57;4.32;;;2.80;;
53718;SDS011;39616;48.872;9.390;2023-07-16T00:06:28;2.70;;;1.70;;
53718;SDS011;39616;48.872;9.390;2023-07-16T00:08:59;5.30;;;2.40;;
53718;SDS011;39616;48.872;9.390;2023-07-16T00:11:29;3.72;;;2.08;;
53718;SDS011;39616;48.872;9.390;2023-07-16T00:14:00;4.13;;;2.40;;
53718;SDS011;39616;48.872;9.390;2023-07-16T00:16:31;1.40;;;1.30;;
53718;SDS011;39616;48.872;9.390;2023-07-16T00:19:02;2.58;;;1.50;;
53718;SDS011;39616;48.872;9.390;2023-07-16T00:21:32;5.78;;;2.17;;
53718;SDS011;39616;48.872;9.390;2023-07-16T00:24:02;2.92;;;1.65;;
53718;SDS011;39616;48.872;9.390;2023-07-16T00:26:33;4.00;;;2.08;;
53718;SDS011;39616;48.872;9.390;2023-07-16T00:29:03;3.58;;;1.75;;
53718;SDS011;39616;48.872;9.390;2023-07-16T00:31:34;1.55;;;1.40;;
53718;SDS011;39616;48.872;9.390;2023-07-16T00:34:04;3.20;;;1.52;;
53718;SDS011;39616;48.872;9.390;2023-07-16T00:36:34;4.88;;;1.67;;
53718;SDS011;39616;48.872;9.390;2023-07-16T00:39:05;4.28;;;1.88;;
53718;SDS011;39616;48.872;9.390;2023-07-16T00:41:35;3.17;;;2.10;;
53718;SDS011;39616;48.872;9.390;2023-07-16T00:44:05;3.35;;;2.17;;
53718;SDS011;39616;48.872;9.390;2023-07-16T00:46:36;4.65;;;2.33;;
53718;SDS011;39616;48.872;9.390;2023-07-16T00:49:06;2.55;;;1.80;;
53718;SDS011;39616;48.872;9.390;2023-07-16T00:51:36;3.22;;;2.17;;
53718;SDS011;39616;48.872;9.390;2023-07-16T00:54:07;2.78;;;1.52;;
53718;SDS011;39616;48.872;9.390;2023-07-16T00:56:38;5.47;;;1.55;;
53718;SDS011;39616;48.872;9.390;2023-07-16T00:59:08;2.47;;;1.30;;
53718;SDS011;39616;48.872;9.390;2023-07-16T01:01:39;4.60;;;1.90;;
53718;SDS011;39616;48.872;9.390;2023-07-16T01:04:09;3.45;;;1.58;;
53718;SDS011;39616;48.872;9.390;2023-07-16T01:06:41;2.33;;;1.52;;
53718;SDS011;39616;48.872;9.390;2023-07-16T01:09:16;1.60;;;1.50;;
53718;SDS011;39616;48.872;9.390;2023-07-16T01:11:48;3.58;;;1.60;;
53718;SDS011;39616;48.872;9.390;2023-07-16T01:14:19;2.40;;;1.45;;
53718;SDS011;39616;48.872;9.390;2023-07-16T01:16:50;3.65;;;1.55;;
53718;SDS011;39616;48.872;9.390;2023-07-16T01:19:23;2.20;;;2.00;;
53718;SDS011;39616;48.872;9.390;2023-07-16T01:30:15;3.40;;;2.42;;
53718;SDS011;39616;48.872;9.390;2023-07-16T01:32:49;3.90;;;1.40;;
53718;SDS011;39616;48.872;9.390;2023-07-16T01:35:20;3.28;;;1.67;;
53718;SDS011;39616;48.872;9.390;2023-07-16T01:37:51;1.60;;;1.50;;
53718;SDS011;39616;48.872;9.390;2023-07-16T01:40:21;3.03;;;1.70;;
53718;SDS011;39616;48.872;9.390;2023-07-16T01:42:52;3.95;;;1.90;;
53718;SDS011;39616;48.872;9.390;2023-07-16T01:45:22;3.28;;;1.63;;
53718;SDS011;39616;48.872;9.390;2023-07-16T01:50:23;2.60;;;1.20;;
53718;SDS011;39616;48.872;9.390;2023-07-16T01:52:53;3.17;;;1.25;;
53718;SDS011;39616;48.872;9.390;2023-07-16T01:55:23;1.77;;;0.93;;
53718;SDS011;39616;48.872;9.390;2023-07-16T01:57:53;2.15;;;1.33;;
53718;SDS011;39616;48.872;9.390;2023-07-16T02:00:24;1.20;;;1.10;;
53718;SDS011;39616;48.872;9.390;2023-07-16T02:02:54;1.05;;;0.80;;
53718;SDS011;39616;48.872;9.390;2023-07-16T02:05:24;3.40;;;1.00;;
53718;SDS011;39616;48.872;9.390;2023-07-16T02:07:55;2.70;;;1.15;;
53718;SDS011;39616;48.872;9.390;2023-07-16T02:10:25;2.53;;;1.00;;
53718;SDS011;39616;48.872;9.390;2023-07-16T02:12:56;1.30;;;0.80;;
53718;SDS011;39616;48.872;9.390;2023-07-16T02:15:26;1.83;;;0.70;;
53718;SDS011;39616;48.872;9.390;2023-07-16T02:17:56;0.70;;;0.70;;
53718;SDS011;39616;48.872;9.390;2023-07-16T02:20:26;0.90;;;0.77;;
53718;SDS011;39616;48.872;9.390;2023-07-16T02:22:57;1.02;;;0.80;;
53718;SDS011;39616;48.872;9.390;2023-07-16T02:25:27;2.58;;;0.90;;
53718;SDS011;39616;48.872;9.390;2023-07-16T02:27:58;0.95;;;0.80;;
53718;SDS011;39616;48.872;9.390;2023-07-16T02:30:28;2.13;;;1.10;;
53718;SDS011;39616;48.872;9.390;2023-07-16T02:32:58;2.47;;;0.90;;
53718;SDS011;39616;48.872;9.390;2023-07-16T02:35:28;2.78;;;0.77;;
53718;SDS011;39616;48.872;9.390;2023-07-16T02:37:59;0.70;;;0.70;;
53718;SDS011;39616;48.872;9.390;2023-07-16T02:40:29;1.58;;;0.70;;
53718;SDS011;39616;48.872;9.390;2023-07-16T02:42:59;1.38;;;0.80;;
53718;SDS011;39616;48.872;9.390;2023-07-16T02:45:29;3.00;;;0.70;;
53718;SDS011;39616;48.872;9.390;2023-07-16T02:48:00;1.25;;;0.70;;
53718;SDS011;39616;48.872;9.390;2023-07-16T02:50:33;1.35;;;0.80;;
53718;SDS011;39616;48.872;9.390;2023-07-16T02:53:04;1.70;;;0.65;;
53718;SDS011;39616;48.872;9.390;2023-07-16T02:55:35;1.58;;;0.60;;
53718;SDS011;39616;48.872;9.390;2023-07-16T02:58:05;2.13;;;0.60;;
53718;SDS011;39616;48.872;9.390;2023-07-16T03:00:36;3.03;;;0.85;;
53718;SDS011;39616;48.872;9.390;2023-07-16T03:03:06;1.40;;;0.70;;
53718;SDS011;39616;48.872;9.390;2023-07-16T03:05:36;1.70;;;0.60;;
53718;SDS011;39616;48.872;9.390;2023-07-16T03:08:07;0.70;;;0.70;;
53718;SDS011;39616;48.872;9.390;2023-07-16T03:10:37;5.45;;;0.80;;
53718;SDS011;39616;48.872;9.390;2023-07-16T03:13:07;1.15;;;0.70;;
53718;SDS011;39616;48.872;9.390;2023-07-16T03:15:37;2.63;;;0.80;;
53718;SDS011;39616;48.872;9.390;2023-07-16T03:18:08;6.40;;;0.80;;
53718;SDS011;39616;48.872;9.390;2023-07-16T03:20:38;5.00;;;0.77;;
53718;SDS011;39616;48.872;9.390;2023-07-16T03:23:08;4.30;;;0.80;;
53718;SDS011;39616;48.872;9.390;2023-07-16T03:25:39;3.55;;;0.80;;
53718;SDS011;39616;48.872;9.390;2023-07-16T03:28:09;0.77;;;0.60;;
53718;SDS011;39616;48.872;9.390;2023-07-16T03:30:39;2.30;;;0.70;;
53718;SDS011;39616;48.872;9.390;2023-07-16T03:33:10;3.13;;;0.70;;
53718;SDS011;39616;48.872;9.390;2023-07-16T03:35:43;3.40;;;0.80;;
53718;SDS011;39616;48.872;9.390;2023-07-16T03:38:14;1.35;;;0.80;;
53718;SDS011;39616;48.872;9.390;2023-07-16T03:40:49;5.07;;;0.80;;
53718;SDS011;39616;48.872;9.390;2023-07-16T03:43:19;3.10;;;0.90;;
53718;SDS011;39616;48.872;9.390;2023-07-16T03:45:50;1.88;;;0.60;;
53718;SDS011;39616;48.872;9.390;2023-07-16T03:48:20;3.83;;;0.80;;
53718;SDS011;39616;48.872;9.390;2023-07-16T03:50:50;1.40;;;0.80;;
53718;SDS011;39616;48.872;9.390;2023-07-16T03:53:21;3.53;;;0.80;;
53718;SDS011;39616;48.872;9.390;2023-07-16T03:55:51;2.05;;;0.70;;
53718;SDS011;39616;48.872;9.390;2023-07-16T03:58:21;2.53;;;0.63;;
53718;SDS011;39616;48.872;9.390;2023-07-16T04:00:53;2.42;;;0.85;;
53718;SDS011;39616;48.872;9.390;2023-07-16T04:03:23;2.88;;;0.60;;
53718;SDS011;39616;48.872;9.390;2023-07-16T04:06:03;4.13;;;0.73;;
53718;SDS011;39616;48.872;9.390;2023-07-16T04:08:35;4.22;;;0.70;;
53718;SDS011;39616;48.872;9.390;2023-07-16T04:11:05;1.40;;;0.60;;
53718;SDS011;39616;48.872;9.390;2023-07-16T04:13:36;2.28;;;0.70;;
53718;SDS011;39616;48.872;9.390;2023-07-16T04:16:06;1.90;;;0.73;;
53718;SDS011;39616;48.872;9.390;2023-07-16T04:18:37;3.15;;;0.70;;
53718;SDS011;39616;48.872;9.390;2023-07-16T04:21:07;2.10;;;0.80;;
53718;SDS011;39616;48.872;9.390;2023-07-16T04:23:37;1.20;;;0.93;;
53718;SDS011;39616;48.872;9.390;2023-07-16T04:26:07;1.33;;;0.98;;
53718;SDS011;39616;48.872;9.390;2023-07-16T04:28:38;2.13;;;0.90;;
53718;SDS011;39616;48.872;9.390;2023-07-16T04:31:09;1.75;;;0.80;;
53718;SDS011;39616;48.872;9.390;2023-07-16T04:33:39;5.28;;;0.80;;
53718;SDS011;39616;48.872;9.390;2023-07-16T04:36:10;2.75;;;0.90;;
53718;SDS011;39616;48.872;9.390;2023-07-16T04:38:40;2.10;;;0.70;;
53718;SDS011;39616;48.872;9.390;2023-07-16T04:41:10;2.33;;;1.10;;
53718;SDS011;39616;48.872;9.390;2023-07-16T04:43:42;3.13;;;0.90;;
53718;SDS011;39616;48.872;9.390;2023-07-16T04:46:13;2.53;;;0.90;;
53718;SDS011;39616;48.872;9.390;2023-07-16T04:48:43;2.55;;;0.90;;
53718;SDS011;39616;48.872;9.390;2023-07-16T04:51:13;2.42;;;0.90;;
53718;SDS011;39616;48.872;9.390;2023-07-16T04:53:44;2.58;;;0.90;;
53718;SDS011;39616;48.872;9.390;2023-07-16T04:56:14;2.92;;;0.90;;
53718;SDS011;39616;48.872;9.390;2023-07-16T04:58:45;4.95;;;1.13;;
53718;SDS011;39616;48.872;9.390;2023-07-16T05:01:16;4.30;;;0.90;;
53718;SDS011;39616;48.872;9.390;2023-07-16T05:03:46;1.83;;;0.95;;
53718;SDS011;39616;48.872;9.390;2023-07-16T05:06:16;3.67;;;0.90;;
53718;SDS011;39616;48.872;9.390;2023-07-16T05:08:47;3.63;;;0.90;;
53718;SDS011;39616;48.872;9.390;2023-07-16T05:11:17;3.97;;;0.80;;
53718;SDS011;39616;48.872;9.390;2023-07-16T05:13:47;2.67;;;0.85;;
53718;SDS011;39616;48.872;9.390;2023-07-16T05:16:17;4.50;;;1.05;;
53718;SDS011;39616;48.872;9.390;2023-07-16T05:18:48;5.03;;;1.20;;
53718;SDS011;39616;48.872;9.390;2023-07-16T05:21:18;2.22;;;0.82;;
53718;SDS011;39616;48.872;9.390;2023-07-16T05:23:48;1.52;;;0.80;;
53718;SDS011;39616;48.872;9.390;2023-07-16T05:26:18;3.55;;;0.93;;
53718;SDS011;39616;48.872;9.390;2023-07-16T05:28:49;7.85;;;0.93;;
53718;SDS011;39616;48.872;9.390;2023-07-16T05:31:19;2.65;;;0.70;;
53718;SDS011;39616;48.872;9.390;2023-07-16T05:33:49;3.50;;;0.90;;
53718;SDS011;39616;48.872;9.390;2023-07-16T05:36:20;3.53;;;1.20;;
53718;SDS011;39616;48.872;9.390;2023-07-16T05:38:50;2.63;;;0.80;;
53718;SDS011;39616;48.872;9.390;2023-07-16T05:41:20;6.45;;;1.00;;
53718;SDS011;39616;48.872;9.390;2023-07-16T05:43:50;0.80;;;0.70;;
53718;SDS011;39616;48.872;9.390;2023-07-16T05:46:21;3.85;;;0.95;;
53718;SDS011;39616;48.872;9.390;2023-07-16T05:48:51;2.53;;;0.90;;
53718;SDS011;39616;48.872;9.390;2023-07-16T05:51:22;2.53;;;1.02;;
53718;SDS011;39616;48.872;9.390;2023-07-16T05:53:52;4.03;;;1.00;;
53718;SDS011;39616;48.872;9.390;2023-07-16T05:56:22;2.22;;;0.82;;
53718;SDS011;39616;48.872;9.390;2023-07-16T05:58:53;1.60;;;0.80;;
53718;SDS011;39616;48.872;9.390;2023-07-16T06:01:23;2.72;;;0.80;;
53718;SDS011;39616;48.872;9.390;2023-07-16T06:03:53;1.90;;;1.00;;
53718;SDS011;39616;48.872;9.390;2023-07-16T06:06:24;6.07;;;0.77;;
53718;SDS011;39616;48.872;9.390;2023-07-16T06:08:54;3.00;;;0.65;;
53718;SDS011;39616;48.872;9.390;2023-07-16T06:11:24;5.78;;;0.90;;
53718;SDS011;39616;48.872;9.390;2023-07-16T06:13:55;1.00;;;0.90;;
53718;SDS011;39616;48.872;9.390;2023-07-16T06:16:25;1.30;;;0.90;;
53718;SDS011;39616;48.872;9.390;2023-07-16T06:18:55;4.85;;;0.80;;
53718;SDS011;39616;48.872;9.390;2023-07-16T06:21:25;2.95;;;0.80;;
53718;SDS011;39616;48.872;9.390;2023-07-16T06:23:56;2.60;;;0.77;;
53718;SDS011;39616;48.872;9.390;2023-07-16T06:26:26;4.80;;;0.82;;
53718;SDS011;39616;48.872;9.390;2023-07-16T06:28:56;3.72;;;1.10;;
53718;SDS011;39616;48.872;9.390;2023-07-16T06:31:27;3.05;;;0.75;;
53718;SDS011;39616;48.872;9.390;2023-07-16T06:33:57;4.22;;;0.80;;
53718;SDS011;39616;48.872;9.390;2023-07-16T06:36:27;3.70;;;1.05;;
53718;SDS011;39616;48.872;9.390;2023-07-16T06:38:57;3.03;;;0.80;;
53718;SDS011;39616;48.872;9.390;2023-07-16T06:41:30;1.92;;;0.85;;
53718;SDS011;39616;48.872;9.390;2023-07-16T06:44:02;4.65;;;0.90;;
53718;SDS011;39616;48.872;9.390;2023-07-16T06:46:32;3.70;;;0.80;;
53718;SDS011;39616;48.872;9.390;2023-07-16T06:49:02;2.72;;;0.70;;
53718;SDS011;39616;48.872;9.390;2023-07-16T06:51:34;1.60;;;0.80;;
53718;SDS011;39616;48.872;9.390;2023-07-16T06:54:06;5.22;;;0.73;;
53718;SDS011;39616;48.872;9.390;2023-07-16T06:56:36;1.85;;;0.88;;
53718;SDS011;39616;48.872;9.390;2023-07-16T06:59:07;5.50;;;0.90;;
53718;SDS011;39616;48.872;9.390;2023-07-16T07:01:37;2.25;;;0.80;;
53718;SDS011;39616;48.872;9.390;2023-07-16T07:04:07;2.85;;;0.70;;
53718;SDS011;39616;48.872;9.390;2023-07-16T07:06:38;2.60;;;0.60;;
53718;SDS011;39616;48.872;9.390;2023-07-16T07:09:08;6.65;;;0.73;;
53718;SDS011;39616;48.872;9.390;2023-07-16T07:11:38;1.88;;;0.80;;
53718;SDS011;39616;48.872;9.390;2023-07-16T07:14:08;5.53;;;0.70;;
53718;SDS011;39616;48.872;9.390;2023-07-16T07:16:39;4.85;;;1.13;;
53718;SDS011;39616;48.872;9.390;2023-07-16T07:19:10;5.38;;;0.55;;
53718;SDS011;39616;48.872;9.390;2023-07-16T07:21:40;5.32;;;0.98;;
53718;SDS011;39616;48.872;9.390;2023-07-16T07:24:10;6.45;;;0.60;;
53718;SDS011;39616;48.872;9.390;2023-07-16T07:26:40;4.78;;;0.77;;
53718;SDS011;39616;48.872;9.390;2023-07-16T07:29:11;4.30;;;0.93;;
53718;SDS011;39616;48.872;9.390;2023-07-16T07:31:41;4.82;;;0.70;;
53718;SDS011;39616;48.872;9.390;2023-07-16T07:34:11;4.22;;;0.80;;
53718;SDS011;39616;48.872;9.390;2023-07-16T07:36:42;4.00;;;0.75;;
53718;SDS011;39616;48.872;9.390;2023-07-16T07:39:12;2.55;;;0.93;;
53718;SDS011;39616;48.872;9.390;2023-07-16T07:41:46;6.38;;;0.90;;
53718;SDS011;39616;48.872;9.390;2023-07-16T07:44:16;3.55;;;0.70;;
53718;SDS011;39616;48.872;9.390;2023-07-16T07:46:47;5.35;;;0.80;;
53718;SDS011;39616;48.872;9.390;2023-07-16T07:49:17;2.80;;;0.60;;
53718;SDS011;39616;48.872;9.390;2023-07-16T07:51:47;1.45;;;0.50;;
53718;SDS011;39616;48.872;9.390;2023-07-16T07:54:19;2.80;;;0.50;;
53718;SDS011;39616;48.872;9.390;2023-07-16T07:56:49;1.23;;;0.57;;
53718;SDS011;39616;48.872;9.390;2023-07-16T07:59:19;3.13;;;0.68;;
53718;SDS011;39616;48.872;9.390;2023-07-16T08:01:50;2.40;;;0.77;;
53718;SDS011;39616;48.872;9.390;2023-07-16T08:04:20;2.25;;;0.70;;
53718;SDS011;39616;48.872;9.390;2023-07-16T08:06:51;1.40;;;0.60;;
53718;SDS011;39616;48.872;9.390;2023-07-16T08:09:23;2.65;;;0.70;;
53718;SDS011;39616;48.872;9.390;2023-07-16T08:11:53;2.83;;;0.60;;
53718;SDS011;39616;48.872;9.390;2023-07-16T08:14:24;7.75;;;0.80;;
53718;SDS011;39616;48.872;9.390;2023-07-16T08:16:54;3.55;;;0.70;;
53718;SDS011;39616;48.872;9.390;2023-07-16T08:19:24;4.63;;;0.77;;
53718;SDS011;39616;48.872;9.390;2023-07-16T08:21:55;3.78;;;0.90;;
53718;SDS011;39616;48.872;9.390;2023-07-16T08:24:27;4.20;;;0.68;;
53718;SDS011;39616;48.872;9.390;2023-07-16T08:26:57;5.10;;;0.65;;
53718;SDS011;39616;48.872;9.390;2023-07-16T08:29:28;3.03;;;0.60;;
53718;SDS011;39616;48.872;9.390;2023-07-16T08:31:58;3.40;;;0.60;;
53718;SDS011;39616;48.872;9.390;2023-07-16T08:34:28;3.05;;;0.70;;
53718;SDS011;39616;48.872;9.390;2023-07-16T08:36:59;1.00;;;0.68;;
53718;SDS011;39616;48.872;9.390;2023-07-16T08:39:30;2.63;;;0.75;;
53718;SDS011;39616;48.872;9.390;2023-07-16T08:42:01;4.50;;;0.70;;
53718;SDS011;39616;48.872;9.390;2023-07-16T08:44:31;1.58;;;0.60;;
53718;SDS011;39616;48.872;9.390;2023-07-16T08:47:03;3.63;;;0.77;;
53718;SDS011;39616;48.872;9.390;2023-07-16T08:49:34;2.25;;;0.70;;
53718;SDS011;39616;48.872;9.390;2023-07-16T08:52:05;1.30;;;0.68;;
53718;SDS011;39616;48.872;9.390;2023-07-16T08:54:37;1.83;;;0.60;;
53718;SDS011;39616;48.872;9.390;2023-07-16T08:57:08;2.40;;;0.70;;
53718;SDS011;39616;48.872;9.390;2023-07-16T08:59:38;1.60;;;0.60;;
53718;SDS011;39616;48.872;9.390;2023-07-16T09:02:09;2.10;;;0.60;;
53718;SDS011;39616;48.872;9.390;2023-07-16T09:04:39;1.30;;;0.55;;
53718;SDS011;39616;48.872;9.390;2023-07-16T09:07:10;2.08;;;0.80;;
53718;SDS011;39616;48.872;9.390;2023-07-16T09:09:40;2.50;;;0.60;;
53718;SDS011;39616;48.872;9.390;2023-07-16T09:12:11;1.45;;;0.50;;
53718;SDS011;39616;48.872;9.390;2023-07-16T09:14:42;6.45;;;0.90;;
53718;SDS011;39616;48.872;9.390;2023-07-16T09:17:13;2.28;;;0.68;;
53718;SDS011;39616;48.872;9.390;2023-07-16T09:19:51;3.45;;;0.60;;
53718;SDS011;39616;48.872;9.390;2023-07-16T09:22:22;2.17;;;0.70;;
53718;SDS011;39616;48.872;9.390;2023-07-16T09:24:52;4.03;;;0.93;;
53718;SDS011;39616;48.872;9.390;2023-07-16T09:27:29;1.35;;;0.70;;
53718;SDS011;39616;48.872;9.390;2023-07-16T09:30:00;1.73;;;0.70;;
53718;SDS011;39616;48.872;9.390;2023-07-16T09:32:35;1.40;;;0.60;;
53718;SDS011;39616;48.872;9.390;2023-07-16T09:35:11;1.25;;;0.80;;
53718;SDS011;39616;48.872;9.390;2023-07-16T09:37:45;2.25;;;0.70;;
53718;SDS011;39616;48.872;9.390;2023-07-16T09:40:15;2.65;;;0.60;;
53718;SDS011;39616;48.872;9.390;2023-07-16T09:42:46;1.95;;;0.50;;
53718;SDS011;39616;48.872;9.390;2023-07-16T09:45:17;4.10;;;0.80;;
53718;SDS011;39616;48.872;9.390;2023-07-16T09:47:49;1.70;;;0.60;;
53718;SDS011;39616;48.872;9.390;2023-07-16T09:50:21;2.50;;;0.70;;
53718;SDS011;39616;48.872;9.390;2023-07-16T09:52:53;1.17;;;0.70;;
53718;SDS011;39616;48.872;9.390;2023-07-16T09:55:24;2.40;;;0.80;;
53718;SDS011;39616;48.872;9.390;2023-07-16T09:57:56;3.45;;;0.80;;
53718;SDS011;39616;48.872;9.390;2023-07-16T10:00:29;1.73;;;0.85;;
53718;SDS011;39616;48.872;9.390;2023-07-16T10:03:05;3.17;;;0.70;;
53718;SDS011;39616;48.872;9.390;2023-07-16T10:05:37;1.63;;;0.70;;
53718;SDS011;39616;48.872;9.390;2023-07-16T10:08:15;4.30;;;0.70;;
53718;SDS011;39616;48.872;9.390;2023-07-16T10:10:53;4.28;;;0.60;;
53718;SDS011;39616;48.872;9.390;2023-07-16T10:13:26;1.45;;;0.80;;
53718;SDS011;39616;48.872;9.390;2023-07-16T10:15:57;2.90;;;0.80;;
53718;SDS011;39616;48.872;9.390;2023-07-16T10:18:33;2.25;;;0.80;;
53718;SDS011;39616;48.872;9.390;2023-07-16T10:21:07;1.45;;;0.60;;
53718;SDS011;39616;48.872;9.390;2023-07-16T10:23:39;3.83;;;0.73;;
53718;SDS011;39616;48.872;9.390;2023-07-16T10:26:14;1.40;;;0.70;;
53718;SDS011;39616;48.872;9.390;2023-07-16T10:28:45;2.28;;;0.70;;
53718;SDS011;39616;48.872;9.390;2023-07-16T10:31:25;2.13;;;0.80;;
53718;SDS011;39616;48.872;9.390;2023-07-16T10:33:59;2.60;;;0.80;;
53718;SDS011;39616;48.872;9.390;2023-07-16T10:36:40;1.33;;;0.60;;
53718;SDS011;39616;48.872;9.390;2023-07-16T10:39:11;2.95;;;0.93;;
53718;SDS011;39616;48.872;9.390;2023-07-16T10:41:41;4.70;;;0.70;;
53718;SDS011;39616;48.872;9.390;2023-07-16T10:44:13;2.80;;;0.85;;
53718;SDS011;39616;48.872;9.390;2023-07-16T10:46:44;3.45;;;0.80;;
53718;SDS011;39616;48.872;9.390;2023-07-16T10:49:14;2.25;;;0.80;;
53718;SDS011;39616;48.872;9.390;2023-07-16T10:51:44;1.17;;;0.90;;
53718;SDS011;39616;48.872;9.390;2023-07-16T10:54:15;3.00;;;0.80;;
53718;SDS011;39616;48.872;9.390;2023-07-16T10:56:45;2.08;;;0.70;;
53718;SDS011;39616;48.872;9.390;2023-07-16T10:59:17;4.30;;;0.80;;
53718;SDS011;39616;48.872;9.390;2023-07-16T11:01:48;5.05;;;0.70;;
53718;SDS011;39616;48.872;9.390;2023-07-16T11:04:19;2.08;;;0.70;;
53718;SDS011;39616;48.872;9.390;2023-07-16T11:06:50;1.80;;;0.77;;
53718;SDS011;39616;48.872;9.390;2023-07-16T11:09:20;2.08;;;0.70;;
53718;SDS011;39616;48.872;9.390;2023-07-16T11:11:50;1.33;;;0.75;;
53718;SDS011;39616;48.872;9.390;2023-07-16T11:14:21;2.35;;;0.75;;
53718;SDS011;39616;48.872;9.390;2023-07-16T11:16:51;6.22;;;0.90;;
53718;SDS011;39616;48.872;9.390;2023-07-16T11:19:21;1.42;;;0.60;;
53718;SDS011;39616;48.872;9.390;2023-07-16T11:21:52;4.97;;;0.70;;
53718;SDS011;39616;48.872;9.390;2023-07-16T11:24:22;4.13;;;0.90;;
53718;SDS011;39616;48.872;9.390;2023-07-16T11:26:56;1.65;;;0.77;;
53718;SDS011;39616;48.872;9.390;2023-07-16T11:29:35;5.28;;;0.70;;
53718;SDS011;39616;48.872;9.390;2023-07-16T11:32:06;4.45;;;1.10;;
53718;SDS011;39616;48.872;9.390;2023-07-16T11:34:37;3.45;;;0.90;;
53718;SDS011;39616;48.872;9.390;2023-07-16T11:37:10;2.00;;;0.73;;
53718;SDS011;39616;48.872;9.390;2023-07-16T11:39:41;2.08;;;0.60;;
53718;SDS011;39616;48.872;9.390;2023-07-16T11:42:11;2.63;;;1.08;;
53718;SDS011;39616;48.872;9.390;2023-07-16T11:44:42;3.45;;;0.70;;
53718;SDS011;39616;48.872;9.390;2023-07-16T11:47:12;3.08;;;0.80;;
53718;SDS011;39616;48.872;9.390;2023-07-16T11:49:42;3.25;;;0.73;;
53718;SDS011;39616;48.872;9.390;2023-07-16T11:52:12;2.58;;;0.85;;
53718;SDS011;39616;48.872;9.390;2023-07-16T11:54:43;4.05;;;0.80;;
53718;SDS011;39616;48.872;9.390;2023-07-16T11:57:13;2.58;;;0.90;;
53718;SDS011;39616;48.872;9.390;2023-07-16T11:59:43;1.95;;;0.80;;
53718;SDS011;39616;48.872;9.390;2023-07-16T12:02:14;4.07;;;1.10;;
53718;SDS011;39616;48.872;9.390;2023-07-16T12:04:44;1.80;;;0.60;;
53718;SDS011;39616;48.872;9.390;2023-07-16T12:07:15;2.97;;;0.90;;
53718;SDS011;39616;48.872;9.390;2023-07-16T12:09:45;3.63;;;1.20;;
53718;SDS011;39616;48.872;9.390;2023-07-16T12:12:15;3.00;;;1.05;;
53718;SDS011;39616;48.872;9.390;2023-07-16T12:14:45;2.63;;;0.65;;
53718;SDS011;39616;48.872;9.390;2023-07-16T12:17:16;2.08;;;0.60;;
53718;SDS011;39616;48.872;9.390;2023-07-16T12:19:46;1.88;;;0.80;;
53718;SDS011;39616;48.872;9.390;2023-07-16T12:22:17;3.85;;;0.70;;
53718;SDS011;39616;48.872;9.390;2023-07-16T12:24:48;1.05;;;0.63;;
53718;SDS011;39616;48.872;9.390;2023-07-16T12:27:18;1.85;;;0.93;;
53718;SDS011;39616;48.872;9.390;2023-07-16T12:29:50;1.20;;;0.68;;
53718;SDS011;39616;48.872;9.390;2023-07-16T12:32:22;2.45;;;0.80;;
53718;SDS011;39616;48.872;9.390;2023-07-16T12:34:52;1.92;;;0.68;;
53718;SDS011;39616;48.872;9.390;2023-07-16T12:37:24;2.22;;;0.80;;
53718;SDS011;39616;48.872;9.390;2023-07-16T12:39:55;6.43;;;0.80;;
53718;SDS011;39616;48.872;9.390;2023-07-16T12:42:25;1.33;;;0.90;;
53718;SDS011;39616;48.872;9.390;2023-07-16T12:44:55;2.95;;;0.85;;
53718;SDS011;39616;48.872;9.390;2023-07-16T12:47:26;1.23;;;0.68;;
53718;SDS011;39616;48.872;9.390;2023-07-16T12:49:56;0.98;;;0.70;;
53718;SDS011;39616;48.872;9.390;2023-07-16T12:52:26;1.73;;;0.80;;
53718;SDS011;39616;48.872;9.390;2023-07-16T12:54:56;1.10;;;0.60;;
53718;SDS011;39616;48.872;9.390;2023-07-16T12:57:27;3.13;;;0.80;;
53718;SDS011;39616;48.872;9.390;2023-07-16T12:59:57;4.30;;;0.80;;
53718;SDS011;39616;48.872;9.390;2023-07-16T13:02:27;1.33;;;0.70;;
53718;SDS011;39616;48.872;9.390;2023-07-16T13:04:58;1.13;;;0.75;;
53718;SDS011;39616;48.872;9.390;2023-07-16T13:07:28;2.92;;;0.80;;
53718;SDS011;39616;48.872;9.390;2023-07-16T13:09:59;1.70;;;0.70;;
53718;SDS011;39616;48.872;9.390;2023-07-16T13:12:30;1.38;;;0.70;;
53718;SDS011;39616;48.872;9.390;2023-07-16T13:15:00;4.00;;;0.80;;
53718;SDS011;39616;48.872;9.390;2023-07-16T13:17:30;1.90;;;0.70;;
53718;SDS011;39616;48.872;9.390;2023-07-16T13:20:01;1.25;;;0.80;;
53718;SDS011;39616;48.872;9.390;2023-07-16T13:22:31;1.23;;;0.70;;
53718;SDS011;39616;48.872;9.390;2023-07-16T13:25:01;1.88;;;0.70;;
53718;SDS011;39616;48.872;9.390;2023-07-16T13:27:32;1.42;;;0.98;;
53718;SDS011;39616;48.872;9.390;2023-07-16T13:30:02;2.63;;;0.80;;
53718;SDS011;39616;48.872;9.390;2023-07-16T13:32:33;1.60;;;0.82;;
53718;SDS011;39616;48.872;9.390;2023-07-16T13:35:03;1.40;;;0.90;;
53718;SDS011;39616;48.872;9.390;2023-07-16T13:37:34;1.55;;;0.82;;
53718;SDS011;39616;48.872;9.390;2023-07-16T13:40:05;1.20;;;0.70;;
53718;SDS011;39616;48.872;9.390;2023-07-16T13:42:36;0.80;;;0.80;;
53718;SDS011;39616;48.872;9.390;2023-07-16T13:45:06;2.60;;;0.82;;
53718;SDS011;39616;48.872;9.390;2023-07-16T13:47:37;1.38;;;0.80;;
53718;SDS011;39616;48.872;9.390;2023-07-16T13:50:07;1.50;;;0.80;;
53718;SDS011;39616;48.872;9.390;2023-07-16T13:52:38;4.57;;;1.00;;
53718;SDS011;39616;48.872;9.390;2023-07-16T13:55:09;1.58;;;0.70;;
53718;SDS011;39616;48.872;9.390;2023-07-16T13:57:39;1.52;;;0.70;;
53718;SDS011;39616;48.872;9.390;2023-07-16T14:00:09;3.13;;;1.00;;
53718;SDS011;39616;48.872;9.390;2023-07-16T14:02:40;2.60;;;0.70;;
53718;SDS011;39616;48.872;9.390;2023-07-16T14:05:10;1.38;;;0.75;;
53718;SDS011;39616;48.872;9.390;2023-07-16T14:07:41;1.67;;;0.70;;
53718;SDS011;39616;48.872;9.390;2023-07-16T14:10:11;1.95;;;0.80;;
53718;SDS011;39616;48.872;9.390;2023-07-16T14:12:41;1.05;;;0.70;;
53718;SDS011;39616;48.872;9.390;2023-07-16T14:15:12;1.10;;;0.70;;
53718;SDS011;39616;48.872;9.390;2023-07-16T14:17:42;1.05;;;0.70;;
53718;SDS011;39616;48.872;9.390;2023-07-16T14:20:15;3.85;;;0.70;;
53718;SDS011;39616;48.872;9.390;2023-07-16T14:22:45;1.55;;;0.80;;
53718;SDS011;39616;48.872;9.390;2023-07-16T14:25:16;3.33;;;0.80;;
53718;SDS011;39616;48.872;9.390;2023-07-16T14:27:46;1.20;;;0.70;;
53718;SDS011;39616;48.872;9.390;2023-07-16T14:30:17;2.78;;;0.88;;
53718;SDS011;39616;48.872;9.390;2023-07-16T14:32:48;1.42;;;0.90;;
53718;SDS011;39616;48.872;9.390;2023-07-16T14:35:18;2.30;;;0.73;;
53718;SDS011;39616;48.872;9.390;2023-07-16T14:37:48;1.05;;;0.80;;
53718;SDS011;39616;48.872;9.390;2023-07-16T14:40:19;3.33;;;0.70;;
53718;SDS011;39616;48.872;9.390;2023-07-16T14:42:49;3.00;;;0.80;;
53718;SDS011;39616;48.872;9.390;2023-07-16T14:45:20;1.77;;;0.90;;
53718;SDS011;39616;48.872;9.390;2023-07-16T14:47:50;3.10;;;0.80;;
53718;SDS011;39616;48.872;9.390;2023-07-16T14:50:21;1.58;;;0.70;;
53718;SDS011;39616;48.872;9.390;2023-07-16T14:52:51;1.23;;;0.75;;
53718;SDS011;39616;48.872;9.390;2023-07-16T14:55:21;3.13;;;0.73;;
53718;SDS011;39616;48.872;9.390;2023-07-16T14:57:52;3.30;;;0.73;;
53718;SDS011;39616;48.872;9.390;2023-07-16T15:00:24;2.75;;;0.75;;
53718;SDS011;39616;48.872;9.390;2023-07-16T15:02:54;2.03;;;0.73;;
53718;SDS011;39616;48.872;9.390;2023-07-16T15:05:24;2.72;;;0.73;;
53718;SDS011;39616;48.872;9.390;2023-07-16T15:07:55;1.52;;;0.80;;
53718;SDS011;39616;48.872;9.390;2023-07-16T15:10:25;1.45;;;0.80;;
53718;SDS011;39616;48.872;9.390;2023-07-16T15:12:55;5.75;;;0.80;;
53718;SDS011;39616;48.872;9.390;2023-07-16T15:15:26;1.52;;;0.80;;
53718;SDS011;39616;48.872;9.390;2023-07-16T15:17:56;1.45;;;0.60;;
53718;SDS011;39616;48.872;9.390;2023-07-16T15:20:26;2.10;;;0.80;;